Charlotte Roush — WDE5112 — position and weather

sailwx.info

Track history (hours):
 
Tides and Currents Weather Stations Pressure Air Temp Water Temp Dewpoint Dewpoint Depression Visibility Wind Speed Wind Dir Waves Ship Positions

Charlotte Roush

Owner: AEP River Operations LLC, Chesterfield, MO. More information available from US FCC via Universal Licensing System and Coast Guard Vessel Documentation Center.

Last reported at 2015-Sep-04 23:22 UTC. Time now 2015-Sep-05 01:11 UTC.
Position N 29°56' W 090°08'.

Length 35 m; draft 3 m.

Type: Towing. MMSI: 367362230.

Date/timePositionNaut miles runAvg speedWind from/ knotsBaromVisibWave heightAir tempDewpointWater temp
2015-Sep-04 23:22N 29°56' W 090°08'3 3.1
2015-Sep-04 22:23N 29°55' W 090°05'3 3.5
2015-Sep-04 21:33N 29°57' W 090°03'2 2.3
2015-Sep-04 20:32N 29°57' W 090°01'0 0.2
2015-Sep-04 19:28N 29°57' W 090°01'0 0.0
2015-Sep-04 18:30N 29°57' W 090°01'0 0.1
2015-Sep-04 17:32N 29°57' W 090°01'0 0.1
2015-Sep-04 16:30N 29°57' W 090°01'0 0.0
2015-Sep-04 15:32N 29°57' W 090°01'0 0.3
2015-Sep-04 14:33N 29°57' W 090°01'0 0.0
2015-Sep-04 13:30N 29°57' W 090°01'2 0.1
2015-Sep-03 17:14N 29°56' W 089°59'4 6.3
2015-Sep-03 16:33N 29°57' W 090°03'  
2015-Sep-01 01:16N 29°55' W 090°05'7 0.2
2015-Aug-30 17:24N 29°55' W 089°57'4 4.5
2015-Aug-30 16:33N 29°57' W 090°01'0 0.2
2015-Aug-30 15:33N 29°57' W 090°01'5 4.6
2015-Aug-30 14:31N 29°55' W 090°06'  
2015-Aug-26 05:20N 29°57' W 090°23'  
Track history (hours):
 
Tides and Currents Weather Stations Pressure Air Temp Water Temp Dewpoint Dewpoint Depression Visibility Wind Speed Wind Dir Waves Ship Positions

Charlotte Roush

Owner: AEP River Operations LLC, Chesterfield, MO. More information available from US FCC via Universal Licensing System and Coast Guard Vessel Documentation Center.

Last reported at 2015-Sep-04 23:22 UTC. Time now 2015-Sep-05 01:11 UTC.
Position N 29°56' W 090°08'.

Length 35 m; draft 3 m.

Type: Towing. MMSI: 367362230.

Date/timePositionNaut miles runAvg speedWind from/ knotsBaromVisibWave heightAir tempDewpointWater temp
2015-Sep-04 23:22N 29°56' W 090°08'3 3.1
2015-Sep-04 22:23N 29°55' W 090°05'3 3.5
2015-Sep-04 21:33N 29°57' W 090°03'2 2.3
2015-Sep-04 20:32N 29°57' W 090°01'0 0.2
2015-Sep-04 19:28N 29°57' W 090°01'0 0.0
2015-Sep-04 18:30N 29°57' W 090°01'0 0.1
2015-Sep-04 17:32N 29°57' W 090°01'0 0.1
2015-Sep-04 16:30N 29°57' W 090°01'0 0.0
2015-Sep-04 15:32N 29°57' W 090°01'0 0.3
2015-Sep-04 14:33N 29°57' W 090°01'0 0.0
2015-Sep-04 13:30N 29°57' W 090°01'2 0.1
2015-Sep-03 17:14N 29°56' W 089°59'4 6.3
2015-Sep-03 16:33N 29°57' W 090°03'  
2015-Sep-01 01:16N 29°55' W 090°05'7 0.2
2015-Aug-30 17:24N 29°55' W 089°57'4 4.5
2015-Aug-30 16:33N 29°57' W 090°01'0 0.2
2015-Aug-30 15:33N 29°57' W 090°01'5 4.6
2015-Aug-30 14:31N 29°55' W 090°06'  
2015-Aug-26 05:20N 29°57' W 090°23'  

Dump ship's entire track history